sensor_id;sensor_type;location;lat;lon;timestamp;P1;durP1;ratioP1;P2;durP2;ratioP2
2944;SDS011;1482;51.398;7.128;2023-07-29T00:00:56;7.33;;;6.73;;
2944;SDS011;1482;51.398;7.128;2023-07-29T00:03:22;10.10;;;8.90;;
2944;SDS011;1482;51.398;7.128;2023-07-29T00:05:47;10.87;;;9.60;;
2944;SDS011;1482;51.398;7.128;2023-07-29T00:08:14;10.20;;;9.30;;
2944;SDS011;1482;51.398;7.128;2023-07-29T00:10:39;9.33;;;8.43;;
2944;SDS011;1482;51.398;7.128;2023-07-29T00:13:05;8.73;;;7.97;;
2944;SDS011;1482;51.398;7.128;2023-07-29T00:15:32;9.27;;;7.27;;
2944;SDS011;1482;51.398;7.128;2023-07-29T00:17:57;7.70;;;6.97;;
2944;SDS011;1482;51.398;7.128;2023-07-29T00:20:23;7.70;;;7.00;;
2944;SDS011;1482;51.398;7.128;2023-07-29T00:22:49;8.27;;;6.13;;
2944;SDS011;1482;51.398;7.128;2023-07-29T00:25:17;7.43;;;6.83;;
2944;SDS011;1482;51.398;7.128;2023-07-29T00:27:43;6.10;;;5.60;;
2944;SDS011;1482;51.398;7.128;2023-07-29T00:30:08;8.90;;;6.20;;
2944;SDS011;1482;51.398;7.128;2023-07-29T00:32:34;7.10;;;6.20;;
2944;SDS011;1482;51.398;7.128;2023-07-29T00:35:00;7.70;;;5.97;;
2944;SDS011;1482;51.398;7.128;2023-07-29T00:37:26;6.47;;;5.87;;
2944;SDS011;1482;51.398;7.128;2023-07-29T00:39:52;6.70;;;6.10;;
2944;SDS011;1482;51.398;7.128;2023-07-29T00:42:18;7.90;;;7.30;;
2944;SDS011;1482;51.398;7.128;2023-07-29T00:44:43;6.50;;;6.00;;
2944;SDS011;1482;51.398;7.128;2023-07-29T00:47:09;6.43;;;5.70;;
2944;SDS011;1482;51.398;7.128;2023-07-29T00:49:36;6.93;;;5.90;;
2944;SDS011;1482;51.398;7.128;2023-07-29T00:52:02;7.00;;;6.50;;
2944;SDS011;1482;51.398;7.128;2023-07-29T00:54:27;6.67;;;5.10;;
2944;SDS011;1482;51.398;7.128;2023-07-29T00:56:53;5.73;;;5.33;;
2944;SDS011;1482;51.398;7.128;2023-07-29T00:59:19;8.70;;;5.23;;
2944;SDS011;1482;51.398;7.128;2023-07-29T01:01:44;5.90;;;5.40;;
2944;SDS011;1482;51.398;7.128;2023-07-29T01:04:10;5.33;;;4.83;;
2944;SDS011;1482;51.398;7.128;2023-07-29T01:06:45;4.40;;;4.00;;
2944;SDS011;1482;51.398;7.128;2023-07-29T01:09:31;5.10;;;4.70;;
2944;SDS011;1482;51.398;7.128;2023-07-29T01:11:59;5.10;;;4.60;;
2944;SDS011;1482;51.398;7.128;2023-07-29T01:17:13;7.43;;;4.37;;
2944;SDS011;1482;51.398;7.128;2023-07-29T01:20:04;6.10;;;5.17;;
2944;SDS011;1482;51.398;7.128;2023-07-29T01:22:34;4.90;;;4.50;;
2944;SDS011;1482;51.398;7.128;2023-07-29T01:25:01;5.20;;;4.70;;
2944;SDS011;1482;51.398;7.128;2023-07-29T01:27:27;5.17;;;4.77;;
2944;SDS011;1482;51.398;7.128;2023-07-29T01:29:53;5.20;;;4.70;;
2944;SDS011;1482;51.398;7.128;2023-07-29T01:32:25;4.30;;;3.93;;
2944;SDS011;1482;51.398;7.128;2023-07-29T01:37:39;4.60;;;4.20;;
2944;SDS011;1482;51.398;7.128;2023-07-29T01:40:06;4.60;;;4.30;;
2944;SDS011;1482;51.398;7.128;2023-07-29T01:42:33;5.00;;;4.50;;
2944;SDS011;1482;51.398;7.128;2023-07-29T01:44:59;8.33;;;4.50;;
2944;SDS011;1482;51.398;7.128;2023-07-29T01:47:25;5.37;;;4.87;;
2944;SDS011;1482;51.398;7.128;2023-07-29T01:49:50;5.50;;;4.57;;
2944;SDS011;1482;51.398;7.128;2023-07-29T01:52:16;8.73;;;4.33;;
2944;SDS011;1482;51.398;7.128;2023-07-29T01:54:42;4.00;;;3.70;;
2944;SDS011;1482;51.398;7.128;2023-07-29T01:57:07;4.03;;;3.60;;
2944;SDS011;1482;51.398;7.128;2023-07-29T01:59:33;4.63;;;4.33;;
2944;SDS011;1482;51.398;7.128;2023-07-29T02:01:58;4.97;;;4.60;;
2944;SDS011;1482;51.398;7.128;2023-07-29T02:04:24;5.93;;;4.13;;
2944;SDS011;1482;51.398;7.128;2023-07-29T02:06:49;4.30;;;3.90;;
2944;SDS011;1482;51.398;7.128;2023-07-29T02:09:15;7.90;;;4.70;;
2944;SDS011;1482;51.398;7.128;2023-07-29T02:11:40;4.93;;;4.43;;
2944;SDS011;1482;51.398;7.128;2023-07-29T02:14:06;5.70;;;4.20;;
2944;SDS011;1482;51.398;7.128;2023-07-29T02:16:31;7.13;;;4.30;;
2944;SDS011;1482;51.398;7.128;2023-07-29T02:18:59;4.67;;;4.23;;
2944;SDS011;1482;51.398;7.128;2023-07-29T02:21:24;4.63;;;4.30;;
2944;SDS011;1482;51.398;7.128;2023-07-29T02:23:50;4.60;;;4.30;;
2944;SDS011;1482;51.398;7.128;2023-07-29T02:26:16;3.77;;;3.57;;
2944;SDS011;1482;51.398;7.128;2023-07-29T02:28:42;6.03;;;4.80;;
2944;SDS011;1482;51.398;7.128;2023-07-29T02:31:20;5.73;;;4.77;;
2944;SDS011;1482;51.398;7.128;2023-07-29T02:33:47;4.50;;;4.10;;
2944;SDS011;1482;51.398;7.128;2023-07-29T02:36:14;5.00;;;4.60;;
2944;SDS011;1482;51.398;7.128;2023-07-29T02:38:40;4.10;;;3.90;;
2944;SDS011;1482;51.398;7.128;2023-07-29T02:41:06;5.00;;;4.60;;
2944;SDS011;1482;51.398;7.128;2023-07-29T02:43:34;4.07;;;3.73;;
2944;SDS011;1482;51.398;7.128;2023-07-29T02:46:00;5.40;;;4.43;;
2944;SDS011;1482;51.398;7.128;2023-07-29T02:48:26;4.00;;;3.70;;
2944;SDS011;1482;51.398;7.128;2023-07-29T02:50:53;5.83;;;4.13;;
2944;SDS011;1482;51.398;7.128;2023-07-29T02:53:18;6.43;;;4.43;;
2944;SDS011;1482;51.398;7.128;2023-07-29T02:55:44;5.80;;;5.20;;
2944;SDS011;1482;51.398;7.128;2023-07-29T02:58:09;7.73;;;4.00;;
2944;SDS011;1482;51.398;7.128;2023-07-29T03:00:35;4.80;;;4.50;;
2944;SDS011;1482;51.398;7.128;2023-07-29T03:03:00;5.87;;;4.80;;
2944;SDS011;1482;51.398;7.128;2023-07-29T03:05:29;5.20;;;4.47;;
2944;SDS011;1482;51.398;7.128;2023-07-29T03:07:55;5.67;;;5.27;;
2944;SDS011;1482;51.398;7.128;2023-07-29T03:10:20;10.33;;;4.60;;
2944;SDS011;1482;51.398;7.128;2023-07-29T03:12:47;7.47;;;4.83;;
2944;SDS011;1482;51.398;7.128;2023-07-29T03:15:12;4.97;;;4.67;;
2944;SDS011;1482;51.398;7.128;2023-07-29T03:17:38;7.80;;;5.40;;
2944;SDS011;1482;51.398;7.128;2023-07-29T03:20:03;5.70;;;5.30;;
2944;SDS011;1482;51.398;7.128;2023-07-29T03:22:30;5.30;;;4.90;;
2944;SDS011;1482;51.398;7.128;2023-07-29T03:24:55;5.50;;;5.10;;
2944;SDS011;1482;51.398;7.128;2023-07-29T03:27:21;8.40;;;4.90;;
2944;SDS011;1482;51.398;7.128;2023-07-29T03:29:46;5.43;;;4.40;;
2944;SDS011;1482;51.398;7.128;2023-07-29T03:32:12;5.00;;;4.60;;
2944;SDS011;1482;51.398;7.128;2023-07-29T03:34:38;5.43;;;4.93;;
2944;SDS011;1482;51.398;7.128;2023-07-29T03:37:05;5.30;;;4.90;;
2944;SDS011;1482;51.398;7.128;2023-07-29T03:39:30;6.60;;;5.93;;
2944;SDS011;1482;51.398;7.128;2023-07-29T03:41:56;5.87;;;5.13;;
2944;SDS011;1482;51.398;7.128;2023-07-29T03:44:22;6.80;;;6.20;;
2944;SDS011;1482;51.398;7.128;2023-07-29T03:46:48;8.00;;;7.33;;
2944;SDS011;1482;51.398;7.128;2023-07-29T03:49:13;7.50;;;6.90;;
2944;SDS011;1482;51.398;7.128;2023-07-29T03:51:39;7.67;;;6.87;;
2944;SDS011;1482;51.398;7.128;2023-07-29T03:54:04;9.30;;;6.17;;
2944;SDS011;1482;51.398;7.128;2023-07-29T03:56:31;7.33;;;6.40;;
2944;SDS011;1482;51.398;7.128;2023-07-29T03:59:03;9.10;;;6.23;;
2944;SDS011;1482;51.398;7.128;2023-07-29T04:01:30;7.27;;;6.67;;
2944;SDS011;1482;51.398;7.128;2023-07-29T04:03:55;8.37;;;7.57;;
2944;SDS011;1482;51.398;7.128;2023-07-29T04:06:21;9.70;;;6.97;;
2944;SDS011;1482;51.398;7.128;2023-07-29T04:08:47;9.23;;;8.47;;
2944;SDS011;1482;51.398;7.128;2023-07-29T04:11:13;9.33;;;8.50;;
2944;SDS011;1482;51.398;7.128;2023-07-29T04:13:39;9.60;;;8.60;;
2944;SDS011;1482;51.398;7.128;2023-07-29T04:16:04;8.33;;;7.63;;
2944;SDS011;1482;51.398;7.128;2023-07-29T04:18:30;11.83;;;8.73;;
2944;SDS011;1482;51.398;7.128;2023-07-29T04:20:56;10.77;;;8.20;;
2944;SDS011;1482;51.398;7.128;2023-07-29T04:23:21;9.43;;;8.67;;
2944;SDS011;1482;51.398;7.128;2023-07-29T04:25:47;9.03;;;8.20;;
2944;SDS011;1482;51.398;7.128;2023-07-29T04:28:13;7.50;;;6.90;;
2944;SDS011;1482;51.398;7.128;2023-07-29T04:30:38;8.93;;;8.13;;
2944;SDS011;1482;51.398;7.128;2023-07-29T04:33:04;7.73;;;6.57;;
2944;SDS011;1482;51.398;7.128;2023-07-29T04:35:29;6.17;;;5.77;;
2944;SDS011;1482;51.398;7.128;2023-07-29T04:37:55;6.23;;;5.73;;
2944;SDS011;1482;51.398;7.128;2023-07-29T04:40:20;10.00;;;7.30;;
2944;SDS011;1482;51.398;7.128;2023-07-29T04:42:47;6.60;;;6.10;;
2944;SDS011;1482;51.398;7.128;2023-07-29T04:45:13;6.83;;;6.33;;
2944;SDS011;1482;51.398;7.128;2023-07-29T04:47:39;7.23;;;6.60;;
2944;SDS011;1482;51.398;7.128;2023-07-29T04:50:04;7.40;;;6.90;;
2944;SDS011;1482;51.398;7.128;2023-07-29T04:52:31;6.23;;;5.77;;
2944;SDS011;1482;51.398;7.128;2023-07-29T04:54:56;6.43;;;5.83;;
2944;SDS011;1482;51.398;7.128;2023-07-29T04:57:22;7.43;;;6.73;;
2944;SDS011;1482;51.398;7.128;2023-07-29T04:59:47;9.20;;;8.20;;
2944;SDS011;1482;51.398;7.128;2023-07-29T05:02:13;13.07;;;9.30;;
2944;SDS011;1482;51.398;7.128;2023-07-29T05:04:38;11.87;;;10.67;;
2944;SDS011;1482;51.398;7.128;2023-07-29T05:07:04;11.30;;;10.13;;
2944;SDS011;1482;51.398;7.128;2023-07-29T05:09:30;13.03;;;11.57;;
2944;SDS011;1482;51.398;7.128;2023-07-29T05:11:55;14.10;;;11.00;;
2944;SDS011;1482;51.398;7.128;2023-07-29T05:14:21;11.03;;;9.83;;
2944;SDS011;1482;51.398;7.128;2023-07-29T05:16:46;9.37;;;8.40;;
2944;SDS011;1482;51.398;7.128;2023-07-29T05:19:12;11.03;;;10.10;;
2944;SDS011;1482;51.398;7.128;2023-07-29T05:21:38;10.90;;;9.90;;
2944;SDS011;1482;51.398;7.128;2023-07-29T05:24:04;12.10;;;11.00;;
2944;SDS011;1482;51.398;7.128;2023-07-29T05:26:30;14.57;;;13.07;;
2944;SDS011;1482;51.398;7.128;2023-07-29T05:28:55;14.03;;;12.83;;
2944;SDS011;1482;51.398;7.128;2023-07-29T05:31:21;12.80;;;11.60;;
2944;SDS011;1482;51.398;7.128;2023-07-29T05:33:47;14.27;;;12.30;;
2944;SDS011;1482;51.398;7.128;2023-07-29T05:36:13;12.77;;;11.67;;
2944;SDS011;1482;51.398;7.128;2023-07-29T05:38:38;11.43;;;10.20;;
2944;SDS011;1482;51.398;7.128;2023-07-29T05:41:04;10.63;;;9.67;;
2944;SDS011;1482;51.398;7.128;2023-07-29T05:43:29;8.63;;;7.93;;
2944;SDS011;1482;51.398;7.128;2023-07-29T05:45:55;7.17;;;6.57;;
2944;SDS011;1482;51.398;7.128;2023-07-29T05:48:21;12.23;;;9.00;;
2944;SDS011;1482;51.398;7.128;2023-07-29T05:50:46;8.10;;;7.50;;
2944;SDS011;1482;51.398;7.128;2023-07-29T05:53:13;10.60;;;7.50;;
2944;SDS011;1482;51.398;7.128;2023-07-29T05:55:39;8.13;;;7.30;;
2944;SDS011;1482;51.398;7.128;2023-07-29T05:58:04;9.57;;;6.63;;
2944;SDS011;1482;51.398;7.128;2023-07-29T06:00:30;7.77;;;6.73;;
2944;SDS011;1482;51.398;7.128;2023-07-29T06:02:56;9.23;;;5.90;;
2944;SDS011;1482;51.398;7.128;2023-07-29T06:05:22;6.67;;;5.73;;
2944;SDS011;1482;51.398;7.128;2023-07-29T06:07:48;7.57;;;6.97;;
2944;SDS011;1482;51.398;7.128;2023-07-29T06:10:14;5.27;;;4.77;;
2944;SDS011;1482;51.398;7.128;2023-07-29T06:12:43;6.00;;;5.50;;
2944;SDS011;1482;51.398;7.128;2023-07-29T06:15:10;9.33;;;5.13;;
2944;SDS011;1482;51.398;7.128;2023-07-29T06:17:35;6.27;;;5.67;;
2944;SDS011;1482;51.398;7.128;2023-07-29T06:20:01;6.53;;;5.03;;
2944;SDS011;1482;51.398;7.128;2023-07-29T06:22:27;6.17;;;5.37;;
2944;SDS011;1482;51.398;7.128;2023-07-29T06:24:53;5.50;;;4.30;;
2944;SDS011;1482;51.398;7.128;2023-07-29T06:27:18;7.63;;;5.43;;
2944;SDS011;1482;51.398;7.128;2023-07-29T06:29:44;4.47;;;4.07;;
2944;SDS011;1482;51.398;7.128;2023-07-29T06:32:09;3.83;;;3.20;;
2944;SDS011;1482;51.398;7.128;2023-07-29T06:34:35;4.07;;;3.37;;
2944;SDS011;1482;51.398;7.128;2023-07-29T06:37:00;4.70;;;2.70;;
2944;SDS011;1482;51.398;7.128;2023-07-29T06:39:26;3.80;;;3.50;;
2944;SDS011;1482;51.398;7.128;2023-07-29T06:41:51;3.50;;;3.20;;
2944;SDS011;1482;51.398;7.128;2023-07-29T06:44:17;3.10;;;2.80;;
2944;SDS011;1482;51.398;7.128;2023-07-29T06:46:42;3.83;;;3.40;;
2944;SDS011;1482;51.398;7.128;2023-07-29T06:49:08;18.27;;;3.80;;
2944;SDS011;1482;51.398;7.128;2023-07-29T06:51:34;3.97;;;3.40;;
2944;SDS011;1482;51.398;7.128;2023-07-29T06:54:01;3.20;;;2.90;;
2944;SDS011;1482;51.398;7.128;2023-07-29T06:56:26;6.33;;;3.60;;
2944;SDS011;1482;51.398;7.128;2023-07-29T06:58:52;5.67;;;2.90;;
2944;SDS011;1482;51.398;7.128;2023-07-29T07:01:18;3.20;;;2.70;;
2944;SDS011;1482;51.398;7.128;2023-07-29T07:03:43;3.47;;;2.73;;
2944;SDS011;1482;51.398;7.128;2023-07-29T07:06:09;6.50;;;2.53;;
2944;SDS011;1482;51.398;7.128;2023-07-29T07:08:34;7.80;;;2.57;;
2944;SDS011;1482;51.398;7.128;2023-07-29T07:11:00;3.17;;;2.03;;
2944;SDS011;1482;51.398;7.128;2023-07-29T07:13:25;2.73;;;2.20;;
2944;SDS011;1482;51.398;7.128;2023-07-29T07:15:54;1.53;;;1.43;;
2944;SDS011;1482;51.398;7.128;2023-07-29T07:18:20;2.53;;;2.33;;
2944;SDS011;1482;51.398;7.128;2023-07-29T07:20:48;4.63;;;2.00;;
2944;SDS011;1482;51.398;7.128;2023-07-29T07:23:14;2.10;;;1.80;;
2944;SDS011;1482;51.398;7.128;2023-07-29T07:25:40;2.90;;;2.40;;
2944;SDS011;1482;51.398;7.128;2023-07-29T07:28:07;2.60;;;2.40;;
2944;SDS011;1482;51.398;7.128;2023-07-29T07:30:33;3.50;;;3.30;;
2944;SDS011;1482;51.398;7.128;2023-07-29T07:32:58;5.77;;;2.00;;
2944;SDS011;1482;51.398;7.128;2023-07-29T07:35:24;2.03;;;1.93;;
2944;SDS011;1482;51.398;7.128;2023-07-29T07:37:49;2.83;;;1.90;;
2944;SDS011;1482;51.398;7.128;2023-07-29T07:40:15;5.60;;;2.00;;
2944;SDS011;1482;51.398;7.128;2023-07-29T07:42:40;3.10;;;2.40;;
2944;SDS011;1482;51.398;7.128;2023-07-29T07:45:06;2.17;;;1.83;;
2944;SDS011;1482;51.398;7.128;2023-07-29T07:47:32;4.27;;;2.80;;
2944;SDS011;1482;51.398;7.128;2023-07-29T07:49:57;1.97;;;1.87;;
2944;SDS011;1482;51.398;7.128;2023-07-29T07:52:23;3.37;;;2.80;;
2944;SDS011;1482;51.398;7.128;2023-07-29T07:54:52;2.17;;;1.80;;
2944;SDS011;1482;51.398;7.128;2023-07-29T07:57:19;3.03;;;2.83;;
2944;SDS011;1482;51.398;7.128;2023-07-29T07:59:46;2.10;;;1.90;;
2944;SDS011;1482;51.398;7.128;2023-07-29T08:02:11;2.50;;;2.20;;
2944;SDS011;1482;51.398;7.128;2023-07-29T08:04:37;3.73;;;1.73;;
2944;SDS011;1482;51.398;7.128;2023-07-29T08:07:02;2.17;;;1.77;;
2944;SDS011;1482;51.398;7.128;2023-07-29T08:09:28;3.77;;;1.60;;
2944;SDS011;1482;51.398;7.128;2023-07-29T08:11:54;1.90;;;1.70;;
2944;SDS011;1482;51.398;7.128;2023-07-29T08:14:19;1.63;;;1.50;;
2944;SDS011;1482;51.398;7.128;2023-07-29T08:16:45;1.80;;;1.70;;
2944;SDS011;1482;51.398;7.128;2023-07-29T08:19:10;2.07;;;1.77;;
2944;SDS011;1482;51.398;7.128;2023-07-29T08:21:36;3.10;;;1.70;;
2944;SDS011;1482;51.398;7.128;2023-07-29T08:24:02;2.83;;;2.10;;
2944;SDS011;1482;51.398;7.128;2023-07-29T08:26:28;3.20;;;1.70;;
2944;SDS011;1482;51.398;7.128;2023-07-29T08:28:54;2.63;;;1.77;;
2944;SDS011;1482;51.398;7.128;2023-07-29T08:31:19;1.50;;;1.40;;
2944;SDS011;1482;51.398;7.128;2023-07-29T08:33:45;2.57;;;2.03;;
2944;SDS011;1482;51.398;7.128;2023-07-29T08:36:10;3.33;;;2.00;;
2944;SDS011;1482;51.398;7.128;2023-07-29T08:38:36;2.27;;;1.70;;
2944;SDS011;1482;51.398;7.128;2023-07-29T08:44:25;2.63;;;1.67;;
2944;SDS011;1482;51.398;7.128;2023-07-29T08:46:36;1.53;;;1.40;;
2944;SDS011;1482;51.398;7.128;2023-07-29T08:49:03;2.10;;;1.90;;
2944;SDS011;1482;51.398;7.128;2023-07-29T08:51:29;3.90;;;1.80;;
2944;SDS011;1482;51.398;7.128;2023-07-29T08:53:56;2.27;;;1.67;;
2944;SDS011;1482;51.398;7.128;2023-07-29T08:56:24;3.40;;;1.77;;
2944;SDS011;1482;51.398;7.128;2023-07-29T08:58:50;2.30;;;1.47;;
2944;SDS011;1482;51.398;7.128;2023-07-29T09:01:17;1.60;;;1.20;;
2944;SDS011;1482;51.398;7.128;2023-07-29T09:03:42;1.70;;;1.60;;
2944;SDS011;1482;51.398;7.128;2023-07-29T09:06:08;2.70;;;1.43;;
2944;SDS011;1482;51.398;7.128;2023-07-29T09:08:34;3.20;;;1.53;;
2944;SDS011;1482;51.398;7.128;2023-07-29T09:10:59;2.80;;;1.37;;
2944;SDS011;1482;51.398;7.128;2023-07-29T09:13:25;1.60;;;1.20;;
2944;SDS011;1482;51.398;7.128;2023-07-29T09:15:55;1.30;;;1.20;;
2944;SDS011;1482;51.398;7.128;2023-07-29T09:18:22;1.57;;;1.40;;
2944;SDS011;1482;51.398;7.128;2023-07-29T09:20:48;1.60;;;1.27;;
2944;SDS011;1482;51.398;7.128;2023-07-29T09:23:14;3.60;;;1.60;;
2944;SDS011;1482;51.398;7.128;2023-07-29T09:25:40;1.50;;;1.30;;
2944;SDS011;1482;51.398;7.128;2023-07-29T09:28:08;4.90;;;1.57;;
2944;SDS011;1482;51.398;7.128;2023-07-29T09:30:41;3.97;;;1.40;;
2944;SDS011;1482;51.398;7.128;2023-07-29T09:33:08;1.33;;;1.20;;
2944;SDS011;1482;51.398;7.128;2023-07-29T09:35:35;1.30;;;1.10;;
2944;SDS011;1482;51.398;7.128;2023-07-29T09:38:02;2.00;;;1.60;;
2944;SDS011;1482;51.398;7.128;2023-07-29T09:40:38;2.73;;;1.93;;
2944;SDS011;1482;51.398;7.128;2023-07-29T09:43:06;1.57;;;1.47;;
2944;SDS011;1482;51.398;7.128;2023-07-29T09:45:34;1.70;;;1.37;;
2944;SDS011;1482;51.398;7.128;2023-07-29T09:48:01;2.23;;;1.27;;
2944;SDS011;1482;51.398;7.128;2023-07-29T09:50:29;1.30;;;1.10;;
2944;SDS011;1482;51.398;7.128;2023-07-29T09:52:56;1.60;;;1.47;;
2944;SDS011;1482;51.398;7.128;2023-07-29T09:55:25;1.30;;;0.90;;
2944;SDS011;1482;51.398;7.128;2023-07-29T09:57:55;1.80;;;1.70;;
2944;SDS011;1482;51.398;7.128;2023-07-29T10:00:23;4.70;;;1.50;;
2944;SDS011;1482;51.398;7.128;2023-07-29T10:02:48;1.40;;;1.10;;
2944;SDS011;1482;51.398;7.128;2023-07-29T10:05:14;1.50;;;1.40;;
2944;SDS011;1482;51.398;7.128;2023-07-29T10:07:40;3.20;;;1.97;;
2944;SDS011;1482;51.398;7.128;2023-07-29T10:10:06;3.07;;;1.60;;
2944;SDS011;1482;51.398;7.128;2023-07-29T10:12:33;2.90;;;2.03;;
2944;SDS011;1482;51.398;7.128;2023-07-29T10:15:00;1.70;;;1.60;;
2944;SDS011;1482;51.398;7.128;2023-07-29T10:17:29;2.10;;;1.97;;
2944;SDS011;1482;51.398;7.128;2023-07-29T10:19:55;3.60;;;1.73;;
2944;SDS011;1482;51.398;7.128;2023-07-29T10:22:25;2.40;;;2.20;;
2944;SDS011;1482;51.398;7.128;2023-07-29T10:24:54;2.47;;;2.10;;
2944;SDS011;1482;51.398;7.128;2023-07-29T10:27:24;2.60;;;1.93;;
2944;SDS011;1482;51.398;7.128;2023-07-29T10:29:51;1.97;;;1.87;;
2944;SDS011;1482;51.398;7.128;2023-07-29T10:32:20;1.90;;;1.80;;
2944;SDS011;1482;51.398;7.128;2023-07-29T10:34:50;2.10;;;1.90;;
2944;SDS011;1482;51.398;7.128;2023-07-29T10:37:16;1.70;;;1.60;;
2944;SDS011;1482;51.398;7.128;2023-07-29T10:39:51;2.10;;;1.90;;
2944;SDS011;1482;51.398;7.128;2023-07-29T10:42:18;5.73;;;1.80;;
2944;SDS011;1482;51.398;7.128;2023-07-29T10:49:47;2.60;;;2.40;;
2944;SDS011;1482;51.398;7.128;2023-07-29T10:52:29;2.90;;;2.00;;
2944;SDS011;1482;51.398;7.128;2023-07-29T10:54:56;2.40;;;1.83;;
2944;SDS011;1482;51.398;7.128;2023-07-29T10:57:36;1.73;;;1.63;;
2944;SDS011;1482;51.398;7.128;2023-07-29T11:00:02;2.63;;;2.40;;
2944;SDS011;1482;51.398;7.128;2023-07-29T11:02:30;2.90;;;1.80;;
2944;SDS011;1482;51.398;7.128;2023-07-29T11:04:57;2.10;;;1.90;;
2944;SDS011;1482;51.398;7.128;2023-07-29T11:07:25;2.40;;;2.20;;
2944;SDS011;1482;51.398;7.128;2023-07-29T11:09:58;4.23;;;2.50;;
2944;SDS011;1482;51.398;7.128;2023-07-29T11:17:52;2.70;;;2.10;;
2944;SDS011;1482;51.398;7.128;2023-07-29T11:20:19;1.80;;;1.70;;
2944;SDS011;1482;51.398;7.128;2023-07-29T11:22:49;3.23;;;1.90;;
2944;SDS011;1482;51.398;7.128;2023-07-29T11:25:15;2.87;;;2.07;;
2944;SDS011;1482;51.398;7.128;2023-07-29T11:27:42;2.20;;;1.90;;
2944;SDS011;1482;51.398;7.128;2023-07-29T11:30:09;2.10;;;2.00;;
2944;SDS011;1482;51.398;7.128;2023-07-29T11:32:36;2.53;;;1.70;;
2944;SDS011;1482;51.398;7.128;2023-07-29T11:35:07;1.83;;;1.73;;
2944;SDS011;1482;51.398;7.128;2023-07-29T11:37:35;2.30;;;2.00;;
2944;SDS011;1482;51.398;7.128;2023-07-29T11:40:01;4.83;;;1.90;;
2944;SDS011;1482;51.398;7.128;2023-07-29T11:42:27;2.17;;;1.97;;
2944;SDS011;1482;51.398;7.128;2023-07-29T11:44:55;4.03;;;2.13;;
2944;SDS011;1482;51.398;7.128;2023-07-29T11:47:22;2.50;;;2.20;;
2944;SDS011;1482;51.398;7.128;2023-07-29T11:49:47;3.27;;;2.40;;
2944;SDS011;1482;51.398;7.128;2023-07-29T11:52:13;2.20;;;2.00;;
2944;SDS011;1482;51.398;7.128;2023-07-29T11:54:39;2.20;;;2.00;;
2944;SDS011;1482;51.398;7.128;2023-07-29T11:57:08;2.90;;;2.07;;
2944;SDS011;1482;51.398;7.128;2023-07-29T11:59:34;2.30;;;2.10;;
2944;SDS011;1482;51.398;7.128;2023-07-29T12:02:01;8.00;;;2.87;;
2944;SDS011;1482;51.398;7.128;2023-07-29T12:04:31;2.63;;;2.30;;
2944;SDS011;1482;51.398;7.128;2023-07-29T12:06:58;6.00;;;2.73;;
2944;SDS011;1482;51.398;7.128;2023-07-29T12:09:24;3.00;;;2.80;;
2944;SDS011;1482;51.398;7.128;2023-07-29T12:11:52;2.80;;;2.33;;
2944;SDS011;1482;51.398;7.128;2023-07-29T12:14:17;2.50;;;2.30;;
2944;SDS011;1482;51.398;7.128;2023-07-29T12:16:43;2.50;;;2.03;;
2944;SDS011;1482;51.398;7.128;2023-07-29T12:19:12;2.20;;;2.10;;
2944;SDS011;1482;51.398;7.128;2023-07-29T12:21:38;1.90;;;1.80;;
2944;SDS011;1482;51.398;7.128;2023-07-29T12:24:06;2.23;;;2.03;;
2944;SDS011;1482;51.398;7.128;2023-07-29T12:26:32;3.30;;;1.93;;
2944;SDS011;1482;51.398;7.128;2023-07-29T12:28:57;2.20;;;2.00;;
2944;SDS011;1482;51.398;7.128;2023-07-29T12:31:32;2.33;;;1.93;;
2944;SDS011;1482;51.398;7.128;2023-07-29T12:33:58;2.27;;;2.13;;
2944;SDS011;1482;51.398;7.128;2023-07-29T12:39:21;2.77;;;2.57;;
2944;SDS011;1482;51.398;7.128;2023-07-29T12:41:49;1.90;;;1.80;;
2944;SDS011;1482;51.398;7.128;2023-07-29T12:44:16;4.20;;;2.03;;
2944;SDS011;1482;51.398;7.128;2023-07-29T12:46:42;3.10;;;2.80;;
2944;SDS011;1482;51.398;7.128;2023-07-29T12:49:08;6.80;;;2.90;;
2944;SDS011;1482;51.398;7.128;2023-07-29T12:51:34;2.73;;;2.50;;
2944;SDS011;1482;51.398;7.128;2023-07-29T12:54:00;2.70;;;2.43;;
2944;SDS011;1482;51.398;7.128;2023-07-29T12:56:26;4.27;;;2.30;;
2944;SDS011;1482;51.398;7.128;2023-07-29T12:58:51;3.20;;;1.90;;
2944;SDS011;1482;51.398;7.128;2023-07-29T13:01:17;2.57;;;2.37;;
2944;SDS011;1482;51.398;7.128;2023-07-29T13:03:47;2.40;;;2.20;;
2944;SDS011;1482;51.398;7.128;2023-07-29T13:06:13;6.50;;;2.73;;
2944;SDS011;1482;51.398;7.128;2023-07-29T13:08:40;4.37;;;2.67;;
2944;SDS011;1482;51.398;7.128;2023-07-29T13:11:06;2.60;;;2.40;;
2944;SDS011;1482;51.398;7.128;2023-07-29T13:13:32;3.40;;;2.90;;
2944;SDS011;1482;51.398;7.128;2023-07-29T13:15:57;4.40;;;2.40;;
2944;SDS011;1482;51.398;7.128;2023-07-29T13:18:23;4.70;;;2.00;;
2944;SDS011;1482;51.398;7.128;2023-07-29T13:20:48;2.60;;;2.40;;
2944;SDS011;1482;51.398;7.128;2023-07-29T13:23:14;3.23;;;2.57;;
2944;SDS011;1482;51.398;7.128;2023-07-29T13:25:40;3.87;;;2.40;;
2944;SDS011;1482;51.398;7.128;2023-07-29T13:28:06;3.03;;;2.10;;
2944;SDS011;1482;51.398;7.128;2023-07-29T13:30:32;1.87;;;1.77;;
2944;SDS011;1482;51.398;7.128;2023-07-29T13:32:58;2.90;;;2.53;;
2944;SDS011;1482;51.398;7.128;2023-07-29T13:35:23;2.53;;;2.33;;
2944;SDS011;1482;51.398;7.128;2023-07-29T13:37:49;2.63;;;2.43;;
2944;SDS011;1482;51.398;7.128;2023-07-29T13:40:15;2.80;;;2.60;;
2944;SDS011;1482;51.398;7.128;2023-07-29T13:42:40;2.33;;;2.20;;
2944;SDS011;1482;51.398;7.128;2023-07-29T13:45:06;3.07;;;2.87;;
2944;SDS011;1482;51.398;7.128;2023-07-29T13:47:32;3.77;;;2.00;;
2944;SDS011;1482;51.398;7.128;2023-07-29T13:49:57;2.77;;;2.50;;
2944;SDS011;1482;51.398;7.128;2023-07-29T13:52:24;2.73;;;2.13;;
2944;SDS011;1482;51.398;7.128;2023-07-29T13:54:49;3.10;;;2.30;;
2944;SDS011;1482;51.398;7.128;2023-07-29T13:57:15;2.07;;;1.97;;
2944;SDS011;1482;51.398;7.128;2023-07-29T13:59:40;2.73;;;2.50;;
2944;SDS011;1482;51.398;7.128;2023-07-29T14:02:06;2.73;;;2.50;;
2944;SDS011;1482;51.398;7.128;2023-07-29T14:04:32;3.87;;;2.50;;
2944;SDS011;1482;51.398;7.128;2023-07-29T14:06:58;4.60;;;2.47;;
2944;SDS011;1482;51.398;7.128;2023-07-29T14:09:24;3.20;;;2.40;;
2944;SDS011;1482;51.398;7.128;2023-07-29T14:11:50;3.47;;;3.17;;
2944;SDS011;1482;51.398;7.128;2023-07-29T14:14:15;3.03;;;2.73;;
2944;SDS011;1482;51.398;7.128;2023-07-29T14:16:41;4.90;;;2.13;;
2944;SDS011;1482;51.398;7.128;2023-07-29T14:19:06;5.73;;;2.80;;
2944;SDS011;1482;51.398;7.128;2023-07-29T14:21:32;3.80;;;2.13;;
2944;SDS011;1482;51.398;7.128;2023-07-29T14:23:57;4.60;;;2.47;;
2944;SDS011;1482;51.398;7.128;2023-07-29T14:26:23;5.77;;;3.13;;
2944;SDS011;1482;51.398;7.128;2023-07-29T14:28:48;4.10;;;3.17;;
2944;SDS011;1482;51.398;7.128;2023-07-29T14:31:15;5.57;;;3.20;;
2944;SDS011;1482;51.398;7.128;2023-07-29T14:33:42;3.50;;;2.63;;
2944;SDS011;1482;51.398;7.128;2023-07-29T14:36:08;6.70;;;3.90;;
2944;SDS011;1482;51.398;7.128;2023-07-29T14:38:34;3.67;;;2.23;;
2944;SDS011;1482;51.398;7.128;2023-07-29T14:41:00;4.30;;;2.60;;
2944;SDS011;1482;51.398;7.128;2023-07-29T14:43:26;3.10;;;2.47;;
2944;SDS011;1482;51.398;7.128;2023-07-29T14:45:51;4.53;;;2.10;;
2944;SDS011;1482;51.398;7.128;2023-07-29T14:48:17;4.57;;;2.50;;
2944;SDS011;1482;51.398;7.128;2023-07-29T14:50:42;3.77;;;2.37;;
2944;SDS011;1482;51.398;7.128;2023-07-29T14:53:09;2.83;;;2.63;;
2944;SDS011;1482;51.398;7.128;2023-07-29T14:55:36;4.37;;;2.77;;
2944;SDS011;1482;51.398;7.128;2023-07-29T14:58:02;7.07;;;2.47;;
2944;SDS011;1482;51.398;7.128;2023-07-29T15:00:27;3.20;;;2.37;;
2944;SDS011;1482;51.398;7.128;2023-07-29T15:02:53;2.40;;;2.20;;
2944;SDS011;1482;51.398;7.128;2023-07-29T15:05:18;3.30;;;2.73;;
2944;SDS011;1482;51.398;7.128;2023-07-29T15:07:44;3.00;;;2.40;;
2944;SDS011;1482;51.398;7.128;2023-07-29T15:10:10;2.57;;;2.33;;
2944;SDS011;1482;51.398;7.128;2023-07-29T15:12:35;2.80;;;2.20;;
2944;SDS011;1482;51.398;7.128;2023-07-29T15:15:01;2.33;;;2.10;;
2944;SDS011;1482;51.398;7.128;2023-07-29T15:17:26;6.07;;;2.67;;
2944;SDS011;1482;51.398;7.128;2023-07-29T15:19:52;3.30;;;2.43;;
2944;SDS011;1482;51.398;7.128;2023-07-29T15:22:17;3.20;;;2.33;;
2944;SDS011;1482;51.398;7.128;2023-07-29T15:24:43;2.80;;;2.50;;
2944;SDS011;1482;51.398;7.128;2023-07-29T15:27:11;5.63;;;2.90;;
2944;SDS011;1482;51.398;7.128;2023-07-29T15:29:37;5.83;;;4.27;;
2944;SDS011;1482;51.398;7.128;2023-07-29T15:32:03;3.23;;;2.93;;